createdAt,value
2023-04-26T00:00:36.479Z,3.70
2023-04-26T00:03:04.469Z,3.70
2023-04-26T00:05:31.716Z,3.70
2023-04-26T00:07:59.511Z,3.70
2023-04-26T00:10:26.766Z,3.70
2023-04-26T00:12:53.659Z,3.60
2023-04-26T00:15:20.770Z,3.50
2023-04-26T00:17:47.970Z,3.40
2023-04-26T00:20:15.601Z,3.40
2023-04-26T00:22:42.886Z,3.40
2023-04-26T00:25:10.415Z,3.40
2023-04-26T00:27:37.198Z,3.30
2023-04-26T00:30:04.352Z,3.30
2023-04-26T00:32:32.102Z,3.20
2023-04-26T00:34:58.921Z,3.20
2023-04-26T00:37:25.749Z,3.10
2023-04-26T00:39:52.658Z,3.00
2023-04-26T00:42:19.596Z,3.00
2023-04-26T00:44:46.397Z,3.00
2023-04-26T00:47:13.677Z,2.90
2023-04-26T00:49:40.804Z,2.80
2023-04-26T00:52:07.945Z,2.80
2023-04-26T00:54:35.054Z,2.80
2023-04-26T00:57:02.686Z,2.70
2023-04-26T00:59:29.549Z,2.80
2023-04-26T01:01:56.599Z,2.70
2023-04-26T01:04:27.535Z,2.70
2023-04-26T01:06:55.249Z,2.80
2023-04-26T01:09:22.338Z,2.70
2023-04-26T01:11:49.674Z,2.70
2023-04-26T01:14:16.672Z,2.70
2023-04-26T01:16:47.001Z,2.60
2023-04-26T01:19:15.186Z,2.60
2023-04-26T01:21:42.395Z,2.50
2023-04-26T01:24:11.018Z,2.60
2023-04-26T01:26:44.392Z,2.50
2023-04-26T01:29:22.110Z,2.50
2023-04-26T01:31:49.360Z,2.50
2023-04-26T01:34:16.206Z,2.50
2023-04-26T01:36:43.003Z,2.50
2023-04-26T01:39:10.491Z,2.40
2023-04-26T01:41:37.373Z,2.50
2023-04-26T01:44:04.673Z,2.40
2023-04-26T01:46:31.578Z,2.40
2023-04-26T01:48:58.531Z,2.40
2023-04-26T01:51:25.480Z,2.30
2023-04-26T01:53:52.272Z,2.30
2023-04-26T01:56:19.941Z,2.30
2023-04-26T01:58:46.791Z,2.30
2023-04-26T02:01:13.620Z,2.30
2023-04-26T02:03:40.733Z,2.40
2023-04-26T02:06:08.052Z,2.30
2023-04-26T02:08:36.093Z,2.40
2023-04-26T02:11:02.917Z,2.30
2023-04-26T02:13:31.286Z,2.40
2023-04-26T02:15:58.268Z,2.40
2023-04-26T02:18:25.576Z,2.50
2023-04-26T02:20:52.309Z,2.40
2023-04-26T02:23:19.119Z,2.40
2023-04-26T02:25:50.083Z,2.50
2023-04-26T02:28:17.005Z,2.50
2023-04-26T02:30:44.678Z,2.40
2023-04-26T02:33:11.758Z,2.60
2023-04-26T02:35:38.506Z,2.60
2023-04-26T02:38:05.549Z,2.40
2023-04-26T02:40:32.316Z,2.40
2023-04-26T02:42:59.148Z,2.60
2023-04-26T02:45:26.008Z,2.50
2023-04-26T02:47:53.093Z,2.50
2023-04-26T02:50:20.121Z,2.50
2023-04-26T02:52:46.902Z,2.70
2023-04-26T02:55:14.214Z,2.70
2023-04-26T02:57:41.107Z,2.70
2023-04-26T03:00:08.500Z,2.90
2023-04-26T03:02:36.479Z,2.80
2023-04-26T03:05:03.791Z,2.80
2023-04-26T03:07:31.524Z,2.80
2023-04-26T03:09:58.358Z,2.90
2023-04-26T03:12:25.162Z,2.90
2023-04-26T03:14:52.144Z,2.90
2023-04-26T03:17:18.998Z,2.90
2023-04-26T03:19:45.980Z,2.90
2023-04-26T03:22:16.101Z,2.80
2023-04-26T03:24:44.337Z,2.70
2023-04-26T03:27:11.282Z,2.50
2023-04-26T03:29:38.085Z,2.50
2023-04-26T03:32:06.180Z,2.40
2023-04-26T03:34:33.101Z,2.30
2023-04-26T03:36:59.947Z,2.20
2023-04-26T03:39:26.860Z,2.30
2023-04-26T03:41:53.673Z,2.40
2023-04-26T03:44:20.459Z,2.30
2023-04-26T03:46:47.270Z,2.40
2023-04-26T03:49:14.058Z,2.50
2023-04-26T03:51:41.367Z,2.60
2023-04-26T03:54:08.192Z,2.70
2023-04-26T03:56:35.056Z,2.80
2023-04-26T03:59:02.040Z,2.70
2023-04-26T04:01:29.189Z,2.70
2023-04-26T04:03:56.673Z,2.80
2023-04-26T04:06:23.631Z,2.70
2023-04-26T04:08:50.740Z,2.60
2023-04-26T04:11:17.733Z,2.60
2023-04-26T04:13:44.605Z,2.60
2023-04-26T04:16:11.515Z,2.70
2023-04-26T04:18:38.395Z,2.70
2023-04-26T04:21:05.209Z,2.80
2023-04-26T04:23:32.038Z,2.70
2023-04-26T04:25:58.839Z,2.70
2023-04-26T04:28:25.840Z,2.60
2023-04-26T04:30:52.715Z,2.60
2023-04-26T04:33:20.160Z,2.50
2023-04-26T04:35:47.000Z,2.60
2023-04-26T04:38:14.342Z,2.50
2023-04-26T04:40:41.192Z,2.60
2023-04-26T04:43:08.034Z,2.60
2023-04-26T04:45:35.625Z,2.60
2023-04-26T04:48:05.214Z,2.60
2023-04-26T04:50:32.229Z,2.60
2023-04-26T04:52:59.127Z,2.60
2023-04-26T04:55:26.164Z,2.60
2023-04-26T04:57:53.314Z,2.60
2023-04-26T05:00:20.542Z,2.60
2023-04-26T05:02:47.645Z,2.50
2023-04-26T05:05:14.986Z,2.60
2023-04-26T05:07:41.786Z,2.60
2023-04-26T05:10:09.873Z,2.70
2023-04-26T05:12:36.852Z,2.70
2023-04-26T05:15:04.499Z,2.80
2023-04-26T05:17:33.631Z,2.80
2023-04-26T05:20:00.683Z,2.90
2023-04-26T05:22:28.654Z,2.90
2023-04-26T05:24:55.567Z,3.00
2023-04-26T05:27:22.338Z,3.00
2023-04-26T05:29:49.352Z,3.00
2023-04-26T05:32:16.143Z,3.10
2023-04-26T05:34:42.951Z,3.20
2023-04-26T05:37:09.737Z,3.30
2023-04-26T05:39:36.535Z,3.30
2023-04-26T05:42:03.454Z,3.30
2023-04-26T05:44:30.500Z,3.30
2023-04-26T05:46:57.305Z,3.30
2023-04-26T05:49:24.134Z,3.30
2023-04-26T05:51:51.267Z,3.40
2023-04-26T05:54:18.102Z,3.40
2023-04-26T05:56:44.991Z,3.50
2023-04-26T05:59:13.623Z,3.50
2023-04-26T06:01:40.452Z,3.50
2023-04-26T06:04:08.197Z,3.80
2023-04-26T06:06:35.395Z,4.00
2023-04-26T06:09:02.250Z,4.20
2023-04-26T06:11:29.025Z,4.30
2023-04-26T06:13:55.805Z,4.30
2023-04-26T06:16:23.244Z,4.40
2023-04-26T06:18:50.140Z,4.50
2023-04-26T06:21:16.957Z,4.50
2023-04-26T06:23:43.751Z,4.50
2023-04-26T06:26:10.559Z,4.60
2023-04-26T06:28:37.296Z,4.60
2023-04-26T06:31:04.187Z,4.70
2023-04-26T06:33:31.080Z,4.60
2023-04-26T06:35:57.898Z,4.70
2023-04-26T06:38:24.689Z,5.00
2023-04-26T06:40:51.481Z,5.20
2023-04-26T06:43:18.580Z,5.40
2023-04-26T06:45:45.417Z,5.60
2023-04-26T06:48:12.425Z,5.80
2023-04-26T06:50:40.140Z,6.00
2023-04-26T06:53:08.466Z,6.10
2023-04-26T06:55:35.337Z,6.30
2023-04-26T06:58:03.073Z,6.20
2023-04-26T07:00:30.646Z,6.20
2023-04-26T07:02:58.050Z,6.10
2023-04-26T07:05:26.374Z,6.20
2023-04-26T07:07:53.502Z,6.30
2023-04-26T07:10:21.320Z,6.30
2023-04-26T07:12:48.353Z,6.40
2023-04-26T07:15:15.713Z,6.60
2023-04-26T07:17:44.299Z,6.70
2023-04-26T07:20:11.904Z,6.80
2023-04-26T07:22:39.031Z,6.90
2023-04-26T07:25:06.322Z,6.80
2023-04-26T07:27:33.221Z,6.80
2023-04-26T07:30:00.079Z,6.80
2023-04-26T07:32:27.028Z,6.90
2023-04-26T07:34:54.004Z,7.00
2023-04-26T07:37:20.903Z,7.20
2023-04-26T07:39:47.795Z,7.20
2023-04-26T07:42:15.205Z,7.30
2023-04-26T07:44:42.153Z,7.30
2023-04-26T07:47:13.805Z,7.50
2023-04-26T07:49:41.261Z,7.50
2023-04-26T07:52:09.402Z,7.50
2023-04-26T07:54:36.356Z,7.50
2023-04-26T07:57:03.316Z,7.60
2023-04-26T07:59:30.143Z,7.60
2023-04-26T08:01:57.340Z,7.60
2023-04-26T08:04:35.335Z,7.70
2023-04-26T08:07:02.833Z,7.70
2023-04-26T08:09:30.801Z,7.80
2023-04-26T08:11:57.836Z,7.70
2023-04-26T08:14:24.862Z,7.50
2023-04-26T08:16:51.809Z,7.50
2023-04-26T08:19:18.821Z,7.30
2023-04-26T08:21:45.743Z,7.40
2023-04-26T08:24:12.592Z,7.30
2023-04-26T08:26:39.377Z,7.10
2023-04-26T08:29:06.664Z,7.00
2023-04-26T08:31:33.626Z,6.90
2023-04-26T08:34:00.509Z,7.10
2023-04-26T08:36:27.793Z,7.50
2023-04-26T08:38:56.604Z,7.80
2023-04-26T08:41:24.898Z,8.00
2023-04-26T08:43:52.881Z,8.10
2023-04-26T08:46:21.062Z,8.00
2023-04-26T08:49:00.021Z,8.10
2023-04-26T08:51:29.004Z,8.30
2023-04-26T08:53:57.838Z,8.50
2023-04-26T08:56:24.968Z,8.50
2023-04-26T08:58:53.082Z,8.40
2023-04-26T09:01:21.817Z,8.20
2023-04-26T09:03:48.908Z,8.30
2023-04-26T09:06:17.560Z,8.30
2023-04-26T09:08:44.785Z,8.20
2023-04-26T09:11:11.606Z,8.00
2023-04-26T09:13:38.415Z,7.90
2023-04-26T09:16:05.572Z,7.90
2023-04-26T09:18:33.965Z,7.80
2023-04-26T09:21:08.028Z,7.80
2023-04-26T09:23:35.476Z,7.90
2023-04-26T09:26:21.621Z,8.30
2023-04-26T09:28:48.763Z,8.60
2023-04-26T09:31:37.319Z,8.70
2023-04-26T09:34:04.412Z,8.70
2023-04-26T09:36:31.874Z,8.60
2023-04-26T09:38:59.145Z,8.40
2023-04-26T09:41:43.741Z,8.40
2023-04-26T09:44:24.008Z,8.40
2023-04-26T09:47:10.889Z,8.60
2023-04-26T09:49:50.298Z,8.80
2023-04-26T09:52:18.393Z,8.90
2023-04-26T09:54:51.699Z,9.10
2023-04-26T09:57:19.822Z,9.30
2023-04-26T09:59:50.344Z,9.50
2023-04-26T10:02:26.770Z,9.50
2023-04-26T10:04:56.175Z,9.20
2023-04-26T10:07:25.284Z,8.70
2023-04-26T10:09:53.600Z,8.70
2023-04-26T10:12:20.760Z,8.60
2023-04-26T10:14:48.090Z,8.60
2023-04-26T10:17:15.055Z,8.60
2023-04-26T10:19:44.477Z,8.50
2023-04-26T10:22:17.422Z,8.50
2023-04-26T10:24:45.339Z,8.50
2023-04-26T10:27:12.248Z,8.60
2023-04-26T10:29:54.316Z,8.70
2023-04-26T10:32:21.789Z,9.00
2023-04-26T10:35:13.790Z,9.30
2023-04-26T10:38:01.136Z,9.50
2023-04-26T10:40:41.660Z,9.60
2023-04-26T10:43:11.849Z,9.80
2023-04-26T10:45:40.249Z,9.80
2023-04-26T10:48:18.910Z,9.30
2023-04-26T10:51:13.243Z,9.50
2023-04-26T10:53:46.225Z,9.40
2023-04-26T10:56:28.538Z,9.40
2023-04-26T10:59:28.303Z,9.40
2023-04-26T11:02:01.360Z,9.30
2023-04-26T11:04:53.917Z,9.30
2023-04-26T11:07:39.450Z,9.40
2023-04-26T11:10:12.599Z,9.30
2023-04-26T11:12:42.463Z,9.20
2023-04-26T11:15:11.805Z,9.10
2023-04-26T11:17:38.703Z,9.20
2023-04-26T11:20:10.039Z,9.20
2023-04-26T11:22:41.893Z,9.20
2023-04-26T11:25:09.961Z,9.30
2023-04-26T11:27:36.864Z,9.30
2023-04-26T11:30:05.230Z,9.50
2023-04-26T11:32:33.148Z,9.80
2023-04-26T11:35:03.767Z,10.40
2023-04-26T11:37:30.712Z,10.50
2023-04-26T11:39:57.959Z,10.40
2023-04-26T11:42:27.949Z,10.10
2023-04-26T11:44:57.527Z,9.90
2023-04-26T11:47:26.239Z,9.90
2023-04-26T11:49:53.303Z,10.10
2023-04-26T11:52:20.281Z,10.40
2023-04-26T11:54:47.062Z,10.40
2023-04-26T11:57:17.213Z,10.30
2023-04-26T11:59:44.517Z,10.20
2023-04-26T12:02:12.559Z,10.00
2023-04-26T12:04:40.899Z,10.00
2023-04-26T12:07:08.455Z,9.80
2023-04-26T12:09:36.820Z,9.80
2023-04-26T12:12:08.277Z,9.80
2023-04-26T12:14:37.181Z,9.80
2023-04-26T12:17:06.354Z,9.70
2023-04-26T12:19:34.046Z,9.60
2023-04-26T12:22:01.064Z,9.50
2023-04-26T12:24:30.553Z,9.40
2023-04-26T12:26:58.705Z,9.40
2023-04-26T12:29:28.840Z,9.50
2023-04-26T12:31:55.827Z,9.50
2023-04-26T12:34:22.984Z,9.50
2023-04-26T12:36:49.952Z,9.60
2023-04-26T12:39:16.935Z,9.60
2023-04-26T12:41:44.926Z,9.50
2023-04-26T12:44:12.448Z,9.80
2023-04-26T12:46:39.477Z,9.90
2023-04-26T12:49:06.663Z,10.10
2023-04-26T12:51:33.976Z,10.40
2023-04-26T12:54:00.804Z,10.40
2023-04-26T12:56:28.912Z,10.70
2023-04-26T12:58:55.937Z,10.70
2023-04-26T13:01:22.860Z,10.40
2023-04-26T13:03:49.947Z,10.40
2023-04-26T13:06:17.054Z,10.30
2023-04-26T13:08:43.861Z,10.20
2023-04-26T13:11:10.740Z,10.30
2023-04-26T13:13:43.928Z,10.40
2023-04-26T13:16:12.476Z,10.40
2023-04-26T13:18:40.382Z,10.40
2023-04-26T13:21:07.682Z,10.20
2023-04-26T13:23:34.721Z,10.20
2023-04-26T13:26:01.707Z,10.30
2023-04-26T13:28:28.472Z,10.60
2023-04-26T13:30:56.061Z,10.80
2023-04-26T13:33:23.097Z,10.80
2023-04-26T13:35:49.878Z,10.60
2023-04-26T13:38:17.306Z,10.30
2023-04-26T13:40:44.760Z,10.00
2023-04-26T13:43:11.632Z,9.90
2023-04-26T13:45:38.850Z,9.80
2023-04-26T13:48:05.917Z,9.60
2023-04-26T13:50:32.949Z,9.50
2023-04-26T13:53:00.704Z,9.50
2023-04-26T13:55:29.779Z,9.50
2023-04-26T13:57:57.245Z,9.50
2023-04-26T14:00:24.111Z,9.40
2023-04-26T14:02:51.422Z,9.40
2023-04-26T14:05:18.553Z,9.30
2023-04-26T14:07:45.867Z,9.30
2023-04-26T14:10:12.734Z,9.30
2023-04-26T14:12:39.883Z,9.40
2023-04-26T14:15:07.450Z,9.30
2023-04-26T14:17:34.350Z,9.30
2023-04-26T14:20:01.289Z,9.50
2023-04-26T14:22:28.127Z,9.60
2023-04-26T14:24:55.052Z,9.80
2023-04-26T14:27:21.918Z,9.80
2023-04-26T14:29:48.725Z,9.90
2023-04-26T14:32:15.594Z,10.20
2023-04-26T14:34:43.015Z,10.30
2023-04-26T14:37:10.471Z,10.30
2023-04-26T14:39:37.487Z,10.40
2023-04-26T14:42:04.770Z,10.20
2023-04-26T14:44:31.542Z,10.10
2023-04-26T14:46:58.444Z,9.90
2023-04-26T14:49:25.305Z,9.80
2023-04-26T14:51:53.515Z,9.70
2023-04-26T14:54:21.241Z,9.70
2023-04-26T14:56:48.935Z,9.60
2023-04-26T14:59:16.085Z,9.50
2023-04-26T15:01:43.140Z,9.50
2023-04-26T15:04:10.398Z,9.40
2023-04-26T15:06:37.576Z,9.30
2023-04-26T15:09:04.688Z,9.20
2023-04-26T15:11:31.490Z,9.10
2023-04-26T15:13:58.278Z,8.90
2023-04-26T15:16:25.163Z,8.80
2023-04-26T15:18:52.093Z,8.70
2023-04-26T15:21:19.627Z,8.50
2023-04-26T15:23:46.596Z,8.50
2023-04-26T15:26:13.825Z,8.50
2023-04-26T15:28:40.752Z,8.50
2023-04-26T15:31:11.452Z,8.50
2023-04-26T15:33:38.374Z,8.50
2023-04-26T15:36:05.699Z,8.60
2023-04-26T15:38:34.896Z,8.70
2023-04-26T15:41:01.852Z,8.80
2023-04-26T15:43:28.836Z,8.70
2023-04-26T15:45:56.090Z,8.90
2023-04-26T15:48:22.955Z,9.00
2023-04-26T15:50:53.730Z,9.10
2023-04-26T15:53:21.899Z,9.00
2023-04-26T15:55:48.755Z,9.00
2023-04-26T15:58:15.571Z,9.00
2023-04-26T16:00:42.548Z,8.90
2023-04-26T16:03:09.456Z,8.80
2023-04-26T16:05:36.543Z,8.80
2023-04-26T16:08:03.893Z,8.80
2023-04-26T16:10:30.748Z,8.80
2023-04-26T16:12:57.818Z,8.70
2023-04-26T16:15:24.648Z,8.70
2023-04-26T16:17:51.697Z,8.70
2023-04-26T16:20:18.497Z,8.70
2023-04-26T16:22:45.479Z,8.70
2023-04-26T16:25:12.273Z,8.70
2023-04-26T16:27:39.086Z,8.70
2023-04-26T16:30:06.445Z,8.80
2023-04-26T16:32:34.175Z,8.90
2023-04-26T16:35:01.144Z,8.90
2023-04-26T16:37:28.062Z,8.90
2023-04-26T16:39:55.921Z,9.00
2023-04-26T16:42:23.050Z,9.00
2023-04-26T16:44:49.945Z,9.10
2023-04-26T16:47:16.727Z,9.20
2023-04-26T16:49:43.553Z,9.20
2023-04-26T16:52:10.443Z,9.30
2023-04-26T16:54:37.320Z,9.30
2023-04-26T16:57:04.594Z,9.20
2023-04-26T16:59:31.426Z,9.20
2023-04-26T17:01:58.316Z,9.10
2023-04-26T17:04:26.311Z,9.10
2023-04-26T17:06:53.979Z,9.00
2023-04-26T17:09:20.959Z,9.00
2023-04-26T17:11:47.768Z,8.90
2023-04-26T17:14:14.710Z,8.80
2023-04-26T17:16:41.577Z,8.70
2023-04-26T17:19:08.405Z,8.70
2023-04-26T17:21:35.240Z,8.60
2023-04-26T17:24:02.112Z,8.60
2023-04-26T17:26:29.220Z,8.60
2023-04-26T17:28:56.478Z,8.60
2023-04-26T17:31:23.391Z,8.50
2023-04-26T17:33:50.572Z,8.50
2023-04-26T17:36:19.431Z,8.50
2023-04-26T17:38:46.346Z,8.50
2023-04-26T17:41:18.971Z,8.50
2023-04-26T17:43:45.941Z,8.40
2023-04-26T17:46:13.092Z,8.50
2023-04-26T17:48:40.293Z,8.40
2023-04-26T17:51:07.158Z,8.40
2023-04-26T17:53:33.996Z,8.40
2023-04-26T17:56:00.899Z,8.30
2023-04-26T17:58:27.793Z,8.30
2023-04-26T18:00:54.797Z,8.30
2023-04-26T18:03:21.925Z,8.30
2023-04-26T18:05:49.018Z,8.20
2023-04-26T18:08:15.856Z,8.20
2023-04-26T18:10:42.681Z,8.20
2023-04-26T18:13:11.169Z,8.20
2023-04-26T18:15:38.039Z,8.10
2023-04-26T18:18:08.030Z,8.10
2023-04-26T18:20:38.163Z,8.10
2023-04-26T18:23:04.925Z,8.10
2023-04-26T18:25:31.820Z,8.10
2023-04-26T18:27:58.633Z,8.00
2023-04-26T18:30:25.457Z,8.10
2023-04-26T18:32:53.232Z,8.10
2023-04-26T18:35:20.379Z,8.10
2023-04-26T18:37:47.466Z,8.00
2023-04-26T18:40:14.375Z,8.00
2023-04-26T18:42:42.039Z,7.90
2023-04-26T18:45:09.518Z,7.90
2023-04-26T18:47:36.646Z,7.90
2023-04-26T18:50:04.278Z,7.80
2023-04-26T18:52:31.469Z,7.80
2023-04-26T18:54:58.325Z,7.80
2023-04-26T18:57:26.801Z,7.80
2023-04-26T18:59:53.598Z,7.70
2023-04-26T19:02:20.548Z,7.70
2023-04-26T19:04:50.299Z,7.60
2023-04-26T19:07:17.451Z,7.60
2023-04-26T19:09:53.533Z,7.60
2023-04-26T19:12:21.024Z,7.60
2023-04-26T19:14:47.897Z,7.60
2023-04-26T19:17:14.837Z,7.60
2023-04-26T19:19:41.838Z,7.50
2023-04-26T19:22:08.645Z,7.60
2023-04-26T19:24:35.816Z,7.60
2023-04-26T19:27:02.848Z,7.50
2023-04-26T19:29:29.689Z,7.50
2023-04-26T19:31:56.811Z,7.50
2023-04-26T19:34:23.776Z,7.50
2023-04-26T19:36:50.587Z,7.50
2023-04-26T19:39:17.569Z,7.50
2023-04-26T19:41:44.346Z,7.50
2023-04-26T19:44:12.313Z,7.50
2023-04-26T19:46:39.177Z,7.60
2023-04-26T19:49:06.085Z,7.60
2023-04-26T19:51:33.035Z,7.50
2023-04-26T19:53:59.795Z,7.50
2023-04-26T19:56:26.846Z,7.50
2023-04-26T19:58:53.697Z,7.40
2023-04-26T20:01:20.570Z,7.40
2023-04-26T20:03:47.665Z,7.30
2023-04-26T20:06:14.860Z,7.30
2023-04-26T20:08:41.857Z,7.30
2023-04-26T20:11:14.752Z,7.20
2023-04-26T20:13:42.772Z,7.20
2023-04-26T20:16:09.911Z,7.10
2023-04-26T20:18:37.463Z,6.90
2023-04-26T20:21:05.303Z,6.90
2023-04-26T20:23:32.650Z,6.90
2023-04-26T20:25:59.742Z,7.00
2023-04-26T20:28:26.823Z,6.90
2023-04-26T20:30:53.656Z,7.00
2023-04-26T20:33:20.511Z,6.90
2023-04-26T20:35:47.989Z,7.00
2023-04-26T20:38:14.790Z,7.10
2023-04-26T20:40:41.764Z,7.20
2023-04-26T20:43:08.666Z,6.90
2023-04-26T20:45:35.658Z,6.90
2023-04-26T20:48:02.513Z,6.90
2023-04-26T20:50:29.363Z,7.00
2023-04-26T20:52:56.258Z,7.10
2023-04-26T20:55:23.225Z,7.10
2023-04-26T20:57:50.093Z,7.10
2023-04-26T21:00:17.327Z,7.20
2023-04-26T21:02:44.327Z,7.20
2023-04-26T21:05:11.248Z,7.10
2023-04-26T21:07:38.200Z,7.00
2023-04-26T21:10:05.432Z,7.00
2023-04-26T21:12:32.349Z,6.90
2023-04-26T21:14:59.133Z,6.90
2023-04-26T21:17:26.070Z,6.90
2023-04-26T21:19:53.457Z,6.90
2023-04-26T21:22:20.452Z,6.90
2023-04-26T21:24:47.338Z,6.90
2023-04-26T21:27:14.156Z,6.90
2023-04-26T21:29:41.027Z,6.90
2023-04-26T21:32:07.801Z,6.90
2023-04-26T21:34:34.700Z,6.90
2023-04-26T21:37:01.518Z,6.90
2023-04-26T21:39:28.712Z,6.90
2023-04-26T21:41:55.612Z,6.80
2023-04-26T21:44:22.423Z,6.80
2023-04-26T21:46:49.370Z,6.80
2023-04-26T21:49:16.451Z,6.80
2023-04-26T21:51:43.334Z,6.80
2023-04-26T21:54:10.245Z,6.80
2023-04-26T21:56:37.079Z,6.80
2023-04-26T21:59:04.750Z,6.70
2023-04-26T22:01:31.849Z,6.70
2023-04-26T22:03:58.888Z,6.70
2023-04-26T22:06:25.744Z,6.60
2023-04-26T22:08:52.508Z,6.60
2023-04-26T22:11:19.503Z,6.50
2023-04-26T22:13:46.312Z,6.50
2023-04-26T22:16:13.254Z,6.50
2023-04-26T22:18:40.171Z,6.40
2023-04-26T22:21:07.096Z,6.40
2023-04-26T22:23:34.627Z,6.40
2023-04-26T22:26:01.461Z,6.40
2023-04-26T22:28:28.494Z,6.40
2023-04-26T22:30:55.607Z,6.40
2023-04-26T22:33:22.647Z,6.50
2023-04-26T22:35:49.516Z,6.30
2023-04-26T22:38:16.379Z,6.30
2023-04-26T22:40:43.208Z,6.20
2023-04-26T22:43:09.987Z,6.20
2023-04-26T22:45:36.989Z,6.30
2023-04-26T22:48:04.097Z,6.20
2023-04-26T22:50:30.974Z,6.20
2023-04-26T22:52:57.764Z,6.20
2023-04-26T22:55:24.675Z,6.10
2023-04-26T22:57:51.489Z,6.00
2023-04-26T23:00:19.860Z,6.00
2023-04-26T23:02:46.814Z,6.00
2023-04-26T23:05:13.665Z,5.90
2023-04-26T23:07:40.967Z,5.90
2023-04-26T23:10:08.345Z,5.90
2023-04-26T23:12:36.198Z,5.80
2023-04-26T23:15:05.358Z,5.80
2023-04-26T23:17:34.066Z,5.80
2023-04-26T23:20:01.309Z,5.70
2023-04-26T23:22:28.278Z,5.80
2023-04-26T23:24:55.464Z,5.70
2023-04-26T23:27:24.325Z,5.80
2023-04-26T23:29:51.740Z,5.80
2023-04-26T23:32:18.622Z,5.80
2023-04-26T23:34:45.483Z,5.70
2023-04-26T23:37:12.311Z,5.60
2023-04-26T23:39:39.102Z,5.60
2023-04-26T23:42:06.601Z,5.60
2023-04-26T23:44:33.798Z,5.50
2023-04-26T23:47:00.847Z,5.50
2023-04-26T23:49:27.844Z,5.50
2023-04-26T23:51:54.667Z,5.40
2023-04-26T23:54:21.453Z,5.40
2023-04-26T23:56:48.329Z,5.30
2023-04-26T23:59:16.536Z,5.30
